Aérodrome :
LOGIN :

S'inscrire | Disclaimer

   EN    FR    IT 

 










Légende :    VFR   VFR Marginal   IFR   IFR Intensif   IFR Très Intensif
Visi : 
Plafond : 
>= 8 km
>= 3000ft
5 à 8 km
1000 à 3000 ft
1500m à 5 km
500 à 1000 ft
800 à 1500m
200 à 500 ft
< 800m
< 200 ft
Symboles :   Orages  Brouillard  Fortes neiges  Fortes précipitations  Vent > 20 kt
SIGMETs :   Divers  Orages  Givrage  Turbulence  Onde Orograph.  Cendres Volcan.







- Altitude de l'aérodrome : 20 ft
- Code IATA : BJA


DAAE - Soummam - Bejaia

DERNIER METAR :
  • 192300Z 00000KT 9000 FEW016 FEW023TCU SCT033 25/23 Q1019

METARs EXPIRÉS :
  • 192200Z 06009KT 9000 FEW016 FEW023TCU SCT033 25/23 Q1019
  • 192100Z 05005KT 9000 FEW016 FEW023TCU SCT033 25/23 Q1019

TAF TAF DAAE
Valide du 20 à 00h jusqu'au 21 à 00h UTC


192300Z 2000/2024 24008KT 9999 FEW026 SCT033
TEMPO 2000/2009 2000 -RA BR BKN008 FEW015TCU
PROB30
TEMPO 2002/2006 0600 FG BKN003
BECMG 2010/2012 08012KT
TEMPO 2012/2024 SCT023TCU
PROB30
TEMPO 2014/2020 4000 -TSRA FEW020CB
Pas de NOTAMs connus pour ce terrain.



MET'MAP, la Météo Aéronautique d'un coup d'oeil ! - Copyright ORBIFLY Décembre 2007 - Disclaimer

ORBIFLY MET'MAP TEAM :

Programmation & Développement : Alexandra Zaïnal
Conception & Développement : Baudouin d'Aumeries
Co-Programmation & Développement : Marc-Olivier Méhu
Soutien technique & logistique : Manuel Goepfert

Contact : metmap@orbifly.com




SOURCES & CREDITS :

   NOAA